createdAt,value
2017-11-30T00:02:22.415Z,25.57
2017-11-30T00:04:49.990Z,24.10
2017-11-30T00:07:17.536Z,23.57
2017-11-30T00:09:45.135Z,21.40
2017-11-30T00:12:12.672Z,19.73
2017-11-30T00:14:40.172Z,21.97
2017-11-30T00:17:07.709Z,19.10
2017-11-30T00:19:36.244Z,26.20
2017-11-30T00:22:04.761Z,23.27
2017-11-30T00:24:32.297Z,23.13
2017-11-30T00:27:00.066Z,22.40
2017-11-30T00:29:27.595Z,24.33
2017-11-30T00:31:55.134Z,22.13
2017-11-30T00:34:22.713Z,21.30
2017-11-30T00:36:50.272Z,19.83
2017-11-30T00:39:18.120Z,22.00
2017-11-30T00:41:45.675Z,22.23
2017-11-30T00:44:25.108Z,25.90
2017-11-30T00:46:52.644Z,23.93
2017-11-30T00:49:20.240Z,21.67
2017-11-30T00:51:47.837Z,23.43
2017-11-30T00:54:15.353Z,22.33
2017-11-30T00:56:42.892Z,21.70
2017-11-30T00:59:10.414Z,23.43
2017-11-30T01:01:38.623Z,23.30
2017-11-30T01:04:06.149Z,21.30
2017-11-30T01:06:34.032Z,20.90
2017-11-30T01:09:01.565Z,18.97
2017-11-30T01:11:29.112Z,18.60
2017-11-30T01:13:56.672Z,21.40
2017-11-30T01:16:24.203Z,22.30
2017-11-30T01:18:51.782Z,19.13
2017-11-30T01:21:28.186Z,20.80
2017-11-30T01:23:56.470Z,20.83
2017-11-30T01:26:25.424Z,19.17
2017-11-30T01:28:53.847Z,19.03
2017-11-30T01:31:22.316Z,18.67
2017-11-30T01:33:49.899Z,22.53
2017-11-30T01:36:17.470Z,24.23
2017-11-30T01:38:44.972Z,24.10
2017-11-30T01:41:12.689Z,16.90
2017-11-30T01:43:40.257Z,18.77
2017-11-30T01:46:07.849Z,19.20
2017-11-30T01:48:36.154Z,20.60
2017-11-30T01:51:03.668Z,19.93
2017-11-30T01:53:31.262Z,21.47
2017-11-30T01:55:58.766Z,20.00
2017-11-30T01:58:26.294Z,18.80
2017-11-30T02:00:53.879Z,20.90
2017-11-30T02:03:21.400Z,22.57
2017-11-30T02:05:48.952Z,18.23
2017-11-30T02:08:16.626Z,21.00
2017-11-30T02:10:44.226Z,20.10
2017-11-30T02:13:11.756Z,19.50
2017-11-30T02:15:39.372Z,20.43
2017-11-30T02:18:06.970Z,19.60
2017-11-30T02:20:34.530Z,18.13
2017-11-30T02:23:02.395Z,19.57
2017-11-30T02:25:29.949Z,21.13
2017-11-30T02:27:57.531Z,17.77
2017-11-30T02:30:25.414Z,19.27
2017-11-30T02:32:53.958Z,16.43
2017-11-30T02:35:21.727Z,17.80
2017-11-30T02:37:50.023Z,17.03
2017-11-30T02:40:18.407Z,19.40
2017-11-30T02:42:45.992Z,16.93
2017-11-30T02:45:14.800Z,15.77
2017-11-30T02:47:42.403Z,19.13
2017-11-30T02:50:10.647Z,16.77
2017-11-30T02:52:38.173Z,17.07
2017-11-30T02:55:06.224Z,20.23
2017-11-30T02:57:34.023Z,16.43
2017-11-30T03:00:02.550Z,14.07
2017-11-30T03:02:30.147Z,15.97
2017-11-30T03:04:57.699Z,13.13
2017-11-30T03:07:25.280Z,14.93
2017-11-30T03:09:54.039Z,13.20
2017-11-30T03:12:22.776Z,14.47
2017-11-30T03:14:50.342Z,15.10
2017-11-30T03:17:18.038Z,17.23
2017-11-30T03:19:45.565Z,12.43
2017-11-30T03:22:13.883Z,12.13
2017-11-30T03:24:42.287Z,13.50
2017-11-30T03:27:10.248Z,16.00
2017-11-30T03:29:37.790Z,13.70
2017-11-30T03:32:05.373Z,12.53
2017-11-30T03:34:32.884Z,15.13
2017-11-30T03:37:01.162Z,13.97
2017-11-30T03:39:28.756Z,14.90
2017-11-30T03:41:56.334Z,13.70
2017-11-30T03:44:23.884Z,13.93
2017-11-30T03:46:51.449Z,15.70
2017-11-30T03:49:19.048Z,15.30
2017-11-30T03:51:46.647Z,14.53
2017-11-30T03:54:14.195Z,14.97
2017-11-30T03:56:41.736Z,12.80
2017-11-30T03:59:10.182Z,14.03
2017-11-30T04:01:37.721Z,12.90
2017-11-30T04:04:05.291Z,15.37
2017-11-30T04:06:33.279Z,15.07
2017-11-30T04:09:01.861Z,14.20
2017-11-30T04:11:29.388Z,14.40
2017-11-30T04:13:57.230Z,14.53
2017-11-30T04:16:24.759Z,14.67
2017-11-30T04:18:52.304Z,15.60
2017-11-30T04:21:19.880Z,14.10
2017-11-30T04:23:47.397Z,12.67
2017-11-30T04:26:14.967Z,15.53
2017-11-30T04:28:42.525Z,12.60
2017-11-30T04:31:10.036Z,16.97
2017-11-30T04:33:38.363Z,16.30
2017-11-30T04:36:05.943Z,11.77
2017-11-30T04:38:33.475Z,12.20
2017-11-30T04:41:02.247Z,11.60
2017-11-30T04:43:29.776Z,12.23
2017-11-30T04:45:58.617Z,12.30
2017-11-30T04:48:26.191Z,12.10
2017-11-30T04:50:53.731Z,14.73
2017-11-30T04:53:22.021Z,12.10
2017-11-30T04:55:49.570Z,11.90
2017-11-30T04:58:17.132Z,13.33
2017-11-30T05:00:44.688Z,11.37
2017-11-30T05:03:12.281Z,11.00
2017-11-30T05:05:40.731Z,11.77
2017-11-30T05:08:08.255Z,11.07
2017-11-30T05:10:36.492Z,9.83
2017-11-30T05:13:04.539Z,11.90
2017-11-30T05:15:34.265Z,10.20
2017-11-30T05:18:01.814Z,8.70
2017-11-30T05:20:29.605Z,10.13
2017-11-30T05:22:57.711Z,9.43
2017-11-30T05:25:25.266Z,8.47
2017-11-30T05:27:52.810Z,8.23
2017-11-30T05:30:21.861Z,8.53
2017-11-30T05:32:49.434Z,10.07
2017-11-30T05:35:17.953Z,9.63
2017-11-30T05:37:46.303Z,9.20
2017-11-30T05:40:16.095Z,9.00
2017-11-30T05:42:43.622Z,9.13
2017-11-30T05:45:11.203Z,7.60
2017-11-30T05:47:40.617Z,9.87
2017-11-30T05:50:09.747Z,8.60
2017-11-30T05:52:37.289Z,9.50
2017-11-30T05:55:04.934Z,7.50
2017-11-30T05:57:32.461Z,7.67
2017-11-30T06:00:00.025Z,7.50
2017-11-30T06:02:27.577Z,7.13
2017-11-30T06:04:56.536Z,10.23
2017-11-30T06:07:24.093Z,9.40
2017-11-30T06:09:52.489Z,7.60
2017-11-30T06:12:20.072Z,8.50
2017-11-30T06:14:48.200Z,6.80
2017-11-30T06:17:16.118Z,6.10
2017-11-30T06:19:43.639Z,6.37
2017-11-30T06:22:11.178Z,6.97
2017-11-30T06:24:38.740Z,11.23
2017-11-30T06:27:08.306Z,8.77
2017-11-30T06:29:36.644Z,11.00
2017-11-30T06:32:04.964Z,11.43
2017-11-30T06:34:32.494Z,6.63
2017-11-30T06:37:01.079Z,6.03
2017-11-30T06:39:29.368Z,5.03
2017-11-30T06:41:56.952Z,5.50
2017-11-30T06:44:24.488Z,5.40
2017-11-30T06:46:52.052Z,5.07
2017-11-30T06:49:19.609Z,6.50
2017-11-30T06:51:47.175Z,6.00
2017-11-30T06:54:14.727Z,10.00
2017-11-30T06:56:42.276Z,4.57
2017-11-30T06:59:09.859Z,5.07
2017-11-30T07:01:37.425Z,4.27
2017-11-30T07:04:04.989Z,5.73
2017-11-30T07:06:32.509Z,5.50
2017-11-30T07:09:00.035Z,5.47
2017-11-30T07:11:27.577Z,5.80
2017-11-30T07:13:55.125Z,6.90
2017-11-30T07:16:22.965Z,6.20
2017-11-30T07:18:50.558Z,8.50
2017-11-30T07:21:18.076Z,6.83
2017-11-30T07:23:45.629Z,8.73
2017-11-30T07:26:13.222Z,5.57
2017-11-30T07:28:40.745Z,5.10
2017-11-30T07:31:08.326Z,14.87
2017-11-30T07:33:35.855Z,8.20
2017-11-30T07:36:03.399Z,5.37
2017-11-30T07:38:30.966Z,4.97
2017-11-30T07:40:58.503Z,5.60
2017-11-30T07:43:26.049Z,4.77
2017-11-30T07:45:53.630Z,11.70
2017-11-30T07:48:21.206Z,10.63
2017-11-30T07:50:48.736Z,5.33
2017-11-30T07:53:16.260Z,8.93
2017-11-30T07:55:43.800Z,3.77
2017-11-30T07:58:11.353Z,3.60
2017-11-30T08:00:39.621Z,4.30
2017-11-30T08:03:07.156Z,7.30
2017-11-30T08:05:34.663Z,7.47
2017-11-30T08:08:02.921Z,8.33
2017-11-30T08:10:31.267Z,9.97
2017-11-30T08:12:58.770Z,5.63
2017-11-30T08:15:26.342Z,4.17
2017-11-30T08:17:53.853Z,4.30
2017-11-30T08:20:21.374Z,4.80
2017-11-30T08:22:48.952Z,4.10
2017-11-30T08:25:16.540Z,3.57
2017-11-30T08:27:44.108Z,3.27
2017-11-30T08:30:11.617Z,16.93
2017-11-30T08:32:39.199Z,6.33
2017-11-30T08:35:06.814Z,3.87
2017-11-30T08:37:35.781Z,7.30
2017-11-30T08:40:03.310Z,7.80
2017-11-30T08:42:30.870Z,6.47
2017-11-30T08:44:58.426Z,4.70
2017-11-30T08:47:25.967Z,3.80
2017-11-30T08:49:53.531Z,4.50
2017-11-30T08:52:21.173Z,11.27
2017-11-30T08:54:48.772Z,5.17
2017-11-30T08:57:16.624Z,8.73
2017-11-30T08:59:44.208Z,11.40
2017-11-30T09:02:11.779Z,4.90
2017-11-30T09:04:39.344Z,4.73
2017-11-30T09:07:07.419Z,4.00
2017-11-30T09:09:35.262Z,4.73
2017-11-30T09:12:02.944Z,4.23
2017-11-30T09:14:32.642Z,5.33
2017-11-30T09:17:01.100Z,7.00
2017-11-30T09:19:28.755Z,4.07
2017-11-30T09:21:56.515Z,3.93
2017-11-30T09:24:24.048Z,6.57
2017-11-30T09:26:52.119Z,5.10
2017-11-30T09:29:20.711Z,5.30
2017-11-30T09:31:52.136Z,6.63
2017-11-30T09:34:20.538Z,4.97
2017-11-30T09:36:48.470Z,6.17
2017-11-30T09:39:17.566Z,6.30
2017-11-30T09:41:45.442Z,6.50
2017-11-30T09:44:13.814Z,14.33
2017-11-30T09:46:42.116Z,5.80
2017-11-30T09:49:10.442Z,7.70
2017-11-30T09:51:39.025Z,6.00
2017-11-30T09:54:06.587Z,7.83
2017-11-30T09:56:34.144Z,6.47
2017-11-30T09:59:01.735Z,5.30
2017-11-30T10:01:29.434Z,6.80
2017-11-30T10:03:56.965Z,14.83
2017-11-30T10:06:25.313Z,4.73
2017-11-30T10:08:52.883Z,5.63
2017-11-30T10:11:20.412Z,8.27
2017-11-30T10:13:49.515Z,4.40
2017-11-30T10:16:17.025Z,6.23
2017-11-30T10:18:44.548Z,4.70
2017-11-30T10:21:12.363Z,5.20
2017-11-30T10:23:39.897Z,4.30
2017-11-30T10:26:07.948Z,4.93
2017-11-30T10:28:35.523Z,5.53
2017-11-30T10:31:03.126Z,6.13
2017-11-30T10:33:30.689Z,11.83
2017-11-30T10:35:58.293Z,6.70
2017-11-30T10:38:26.511Z,6.83
2017-11-30T10:40:54.049Z,6.20
2017-11-30T10:43:22.365Z,5.43
2017-11-30T10:45:51.163Z,4.40
2017-11-30T10:48:18.706Z,6.23
2017-11-30T10:50:46.998Z,7.63
2017-11-30T10:53:14.762Z,5.47
2017-11-30T10:55:42.860Z,7.03
2017-11-30T10:58:10.433Z,5.57
2017-11-30T11:00:39.590Z,6.07
2017-11-30T11:03:07.109Z,5.23
2017-11-30T11:05:34.648Z,6.33
2017-11-30T11:08:02.224Z,4.80
2017-11-30T11:10:30.762Z,5.10
2017-11-30T11:12:58.302Z,4.80
2017-11-30T11:15:25.877Z,6.00
2017-11-30T11:17:53.991Z,4.30
2017-11-30T11:20:21.905Z,6.83
2017-11-30T11:22:50.186Z,5.53
2017-11-30T11:25:18.081Z,5.37
2017-11-30T11:27:46.539Z,5.23
2017-11-30T11:30:14.065Z,5.47
2017-11-30T11:32:43.632Z,5.27
2017-11-30T11:35:11.201Z,6.30
2017-11-30T11:37:39.758Z,7.43
2017-11-30T11:40:09.395Z,3.70
2017-11-30T11:42:37.273Z,12.03
2017-11-30T11:45:05.893Z,3.53
2017-11-30T11:47:34.324Z,3.93
2017-11-30T11:50:03.814Z,4.50
2017-11-30T11:52:32.040Z,4.60
2017-11-30T11:54:59.638Z,4.07
2017-11-30T11:57:28.556Z,4.20
2017-11-30T11:59:56.177Z,3.67
2017-11-30T12:02:23.677Z,4.67
2017-11-30T12:04:51.315Z,5.20
2017-11-30T12:07:18.838Z,8.20
2017-11-30T12:09:46.949Z,4.40
2017-11-30T12:12:14.492Z,5.83
2017-11-30T12:14:42.013Z,3.80
2017-11-30T12:17:09.720Z,4.40
2017-11-30T12:19:38.103Z,6.50
2017-11-30T12:22:06.206Z,3.10
2017-11-30T12:24:34.413Z,2.60
2017-11-30T12:27:03.618Z,2.40
2017-11-30T12:29:31.916Z,2.47
2017-11-30T12:32:02.136Z,2.30
2017-11-30T12:34:29.648Z,3.70
2017-11-30T12:36:57.232Z,3.80
2017-11-30T12:39:25.029Z,2.70
2017-11-30T12:41:53.633Z,5.07
2017-11-30T12:44:23.651Z,8.93
2017-11-30T12:46:51.983Z,4.13
2017-11-30T12:49:19.641Z,3.13
2017-11-30T12:51:47.841Z,2.80
2017-11-30T12:54:15.621Z,11.60
2017-11-30T12:56:44.571Z,6.50
2017-11-30T12:59:12.136Z,3.90
2017-11-30T13:01:40.600Z,4.57
2017-11-30T13:04:08.177Z,4.60
2017-11-30T13:06:35.691Z,5.00
2017-11-30T13:09:03.331Z,5.30
2017-11-30T13:11:30.958Z,7.80
2017-11-30T13:13:58.550Z,9.10
2017-11-30T13:16:26.140Z,4.50
2017-11-30T13:18:53.763Z,7.03
2017-11-30T13:21:21.317Z,5.97
2017-11-30T13:23:48.889Z,8.03
2017-11-30T13:26:16.438Z,7.70
2017-11-30T13:28:44.047Z,5.90
2017-11-30T13:31:14.103Z,7.10
2017-11-30T13:33:41.708Z,10.10
2017-11-30T13:36:09.359Z,7.33
2017-11-30T13:38:36.894Z,9.47
2017-11-30T13:41:04.483Z,11.20
2017-11-30T13:43:32.035Z,10.40
2017-11-30T13:46:00.238Z,9.93
2017-11-30T13:48:27.825Z,11.23
2017-11-30T13:50:55.357Z,10.00
2017-11-30T13:53:22.971Z,10.33
2017-11-30T13:55:50.573Z,10.37
2017-11-30T13:58:20.903Z,11.50
2017-11-30T14:00:48.636Z,11.70
2017-11-30T14:03:16.457Z,10.83
2017-11-30T14:05:44.873Z,13.43
2017-11-30T14:08:13.407Z,10.70
2017-11-30T14:10:41.512Z,11.63
2017-11-30T14:13:10.248Z,16.73
2017-11-30T14:15:37.806Z,15.80
2017-11-30T14:18:05.437Z,17.53
2017-11-30T14:20:34.349Z,12.93
2017-11-30T14:23:03.198Z,13.10
2017-11-30T14:25:31.610Z,14.90
2017-11-30T14:27:59.861Z,18.43
2017-11-30T14:30:28.407Z,13.90
2017-11-30T14:32:57.361Z,12.20
2017-11-30T14:35:25.150Z,13.17
2017-11-30T14:37:52.999Z,16.90
2017-11-30T14:40:21.311Z,38.00
2017-11-30T14:42:48.952Z,21.20
2017-11-30T14:45:17.518Z,19.20
2017-11-30T14:47:46.010Z,16.37
2017-11-30T14:50:15.041Z,18.60
2017-11-30T14:52:43.391Z,15.77
2017-11-30T14:55:12.012Z,14.93
2017-11-30T14:57:40.681Z,17.70
2017-11-30T15:00:08.628Z,18.00
2017-11-30T15:02:37.336Z,18.40
2017-11-30T15:05:05.012Z,19.37
2017-11-30T15:07:32.668Z,18.37
2017-11-30T15:10:00.954Z,19.83
2017-11-30T15:12:29.311Z,19.27
2017-11-30T15:14:57.038Z,19.50
2017-11-30T15:17:25.478Z,19.97
2017-11-30T15:19:53.884Z,37.30
2017-11-30T15:22:22.418Z,30.60
2017-11-30T15:24:50.524Z,30.23
2017-11-30T15:27:19.757Z,27.97
2017-11-30T15:29:49.484Z,27.77
2017-11-30T15:32:17.602Z,29.40
2017-11-30T15:34:45.978Z,25.70
2017-11-30T15:37:14.136Z,23.73
2017-11-30T15:39:42.996Z,21.63
2017-11-30T15:42:10.939Z,24.10
2017-11-30T15:44:38.670Z,23.67
2017-11-30T15:47:08.732Z,21.20
2017-11-30T15:49:37.658Z,23.50
2017-11-30T15:52:06.022Z,26.10
2017-11-30T15:54:34.799Z,28.63
2017-11-30T15:57:02.538Z,24.33
2017-11-30T15:59:31.916Z,26.50
2017-11-30T16:02:06.570Z,26.43
2017-11-30T16:04:36.877Z,39.77
2017-11-30T16:07:04.798Z,29.40
2017-11-30T16:09:35.120Z,31.20
2017-11-30T16:12:04.279Z,28.83
2017-11-30T16:14:34.222Z,28.17
2017-11-30T16:17:10.570Z,35.77
2017-11-30T16:19:39.739Z,26.00
2017-11-30T16:22:09.616Z,28.20
2017-11-30T16:24:38.662Z,29.35
2017-11-30T16:27:06.228Z,26.30
2017-11-30T16:29:33.766Z,26.97
2017-11-30T16:32:01.831Z,32.23
2017-11-30T16:34:30.047Z,30.03
2017-11-30T16:36:57.613Z,31.50
2017-11-30T16:39:26.612Z,26.03
2017-11-30T16:41:54.634Z,28.10
2017-11-30T16:44:22.908Z,30.07
2017-11-30T16:46:50.528Z,25.33
2017-11-30T16:49:18.269Z,26.50
2017-11-30T16:51:45.799Z,25.80
2017-11-30T16:54:14.524Z,24.73
2017-11-30T16:56:42.194Z,27.33
2017-11-30T16:59:09.797Z,26.60
2017-11-30T17:01:38.722Z,26.10
2017-11-30T17:04:07.028Z,26.03
2017-11-30T17:06:34.580Z,27.40
2017-11-30T17:09:02.825Z,24.33
2017-11-30T17:11:30.591Z,27.90
2017-11-30T17:13:58.360Z,23.37
2017-11-30T17:16:27.033Z,30.10
2017-11-30T17:18:54.713Z,25.67
2017-11-30T17:21:22.327Z,23.67
2017-11-30T17:23:50.850Z,28.10
2017-11-30T17:26:18.883Z,29.77
2017-11-30T17:28:48.915Z,26.63
2017-11-30T17:31:16.600Z,28.07
2017-11-30T17:33:44.265Z,29.30
2017-11-30T17:36:12.692Z,29.87
2017-11-30T17:38:43.924Z,28.87
2017-11-30T17:41:13.560Z,30.03
2017-11-30T17:43:41.106Z,30.43
2017-11-30T17:46:12.828Z,28.80
2017-11-30T17:48:40.394Z,33.40
2017-11-30T17:51:07.995Z,27.53
2017-11-30T17:53:35.596Z,27.63
2017-11-30T17:56:07.479Z,27.60
2017-11-30T17:58:35.645Z,25.17
2017-11-30T18:01:03.368Z,29.50
2017-11-30T18:03:33.628Z,28.83
2017-11-30T18:06:01.236Z,26.93
2017-11-30T18:11:03.688Z,30.37
2017-11-30T18:13:31.249Z,28.33
2017-11-30T18:15:59.121Z,21.33
2017-11-30T18:18:26.688Z,24.97
2017-11-30T18:20:54.461Z,21.73
2017-11-30T18:23:21.967Z,22.70
2017-11-30T18:25:49.628Z,24.63
2017-11-30T18:28:17.197Z,22.20
2017-11-30T18:30:44.738Z,21.20
2017-11-30T18:33:13.829Z,21.10
2017-11-30T18:35:41.430Z,19.70
2017-11-30T18:38:09.112Z,19.43
2017-11-30T18:40:36.719Z,20.20
2017-11-30T18:43:04.429Z,21.70
2017-11-30T18:45:33.217Z,16.23
2017-11-30T18:48:00.843Z,16.70
2017-11-30T18:50:28.641Z,17.53
2017-11-30T18:52:56.285Z,21.60
2017-11-30T18:55:24.062Z,17.63
2017-11-30T18:57:51.636Z,17.70
2017-11-30T19:00:19.400Z,15.80
2017-11-30T19:02:46.966Z,18.70
2017-11-30T19:05:14.612Z,20.87
2017-11-30T19:07:42.165Z,19.93
2017-11-30T19:10:09.756Z,18.87
2017-11-30T19:12:37.693Z,17.57
2017-11-30T19:15:06.101Z,15.63
2017-11-30T19:17:33.852Z,17.03
2017-11-30T19:20:01.414Z,15.00
2017-11-30T19:22:28.955Z,15.70
2017-11-30T19:24:56.491Z,14.67
2017-11-30T19:27:24.836Z,12.93
2017-11-30T19:29:52.372Z,13.37
2017-11-30T19:32:20.120Z,18.40
2017-11-30T19:34:47.799Z,15.10
2017-11-30T19:37:15.333Z,15.80
2017-11-30T19:39:42.860Z,18.00
2017-11-30T19:42:11.166Z,15.60
2017-11-30T19:44:38.710Z,16.30
2017-11-30T19:47:06.339Z,15.67
2017-11-30T19:49:33.889Z,13.23
2017-11-30T19:52:01.442Z,16.07
2017-11-30T19:54:29.076Z,19.40
2017-11-30T19:56:56.645Z,14.53
2017-11-30T19:59:25.743Z,21.20
2017-11-30T20:01:53.274Z,15.80
2017-11-30T20:04:21.407Z,14.77
2017-11-30T20:06:49.804Z,19.00
2017-11-30T20:09:17.437Z,15.27
2017-11-30T20:11:44.999Z,17.93
2017-11-30T20:14:12.852Z,14.53
2017-11-30T20:16:40.445Z,15.33
2017-11-30T20:19:07.990Z,15.10
2017-11-30T20:21:35.572Z,14.13
2017-11-30T20:24:04.029Z,19.10
2017-11-30T20:26:31.621Z,16.30
2017-11-30T20:28:59.183Z,14.40
2017-11-30T20:31:27.509Z,14.90
2017-11-30T20:33:55.075Z,13.50
2017-11-30T20:36:22.656Z,14.07
2017-11-30T20:38:50.209Z,13.93
2017-11-30T20:41:18.247Z,15.13
2017-11-30T20:43:45.857Z,14.67
2017-11-30T20:46:13.395Z,15.43
2017-11-30T20:48:41.346Z,14.97
2017-11-30T20:51:08.933Z,11.10
2017-11-30T20:53:36.518Z,12.13
2017-11-30T20:56:04.837Z,11.40
2017-11-30T20:58:32.390Z,14.10
2017-11-30T21:00:59.957Z,14.80
2017-11-30T21:03:27.475Z,12.03
2017-11-30T21:05:55.019Z,15.00
2017-11-30T21:08:22.728Z,14.73
2017-11-30T21:10:50.325Z,13.13
2017-11-30T21:13:18.220Z,18.80
2017-11-30T21:15:46.818Z,14.83
2017-11-30T21:18:14.640Z,12.60
2017-11-30T21:20:42.281Z,14.23
2017-11-30T21:23:10.098Z,11.67
2017-11-30T21:25:38.443Z,16.57
2017-11-30T21:28:05.941Z,12.30
2017-11-30T21:30:34.278Z,13.13
2017-11-30T21:33:01.881Z,15.77
2017-11-30T21:35:29.439Z,12.23
2017-11-30T21:37:57.852Z,13.47
2017-11-30T21:40:25.430Z,13.80
2017-11-30T21:42:53.044Z,14.90
2017-11-30T21:45:20.826Z,16.47
2017-11-30T21:47:48.404Z,14.63
2017-11-30T21:50:15.944Z,16.40
2017-11-30T21:52:43.505Z,15.03
2017-11-30T21:55:11.145Z,13.80
2017-11-30T21:57:39.601Z,14.43
2017-11-30T22:00:07.114Z,16.20
2017-11-30T22:02:34.688Z,14.23
2017-11-30T22:05:02.272Z,13.37
2017-11-30T22:07:29.800Z,22.77
2017-11-30T22:09:57.362Z,15.20
2017-11-30T22:12:24.897Z,14.23
2017-11-30T22:14:52.458Z,13.53
2017-11-30T22:17:20.089Z,13.53
2017-11-30T22:19:48.417Z,14.20
2017-11-30T22:22:17.769Z,12.67
2017-11-30T22:24:45.300Z,15.43
2017-11-30T22:27:12.874Z,15.10
2017-11-30T22:29:40.630Z,14.10
2017-11-30T22:32:08.255Z,14.13
2017-11-30T22:34:36.034Z,14.30
2017-11-30T22:49:58.757Z,16.37
2017-11-30T22:52:27.126Z,15.43
2017-11-30T22:54:54.661Z,16.93
2017-11-30T22:57:23.021Z,28.43
2017-11-30T22:59:51.356Z,15.87
2017-11-30T23:02:18.885Z,16.20
2017-11-30T23:04:48.050Z,22.17
2017-11-30T23:07:15.656Z,21.23
2017-11-30T23:09:43.247Z,13.70
2017-11-30T23:12:11.050Z,18.40
2017-11-30T23:14:38.566Z,15.20
2017-11-30T23:17:06.823Z,14.00
2017-11-30T23:19:35.130Z,17.03
2017-11-30T23:22:03.586Z,16.67
2017-11-30T23:24:31.152Z,16.20
2017-11-30T23:39:54.800Z,15.60
2017-11-30T23:42:22.357Z,16.27
2017-11-30T23:44:50.052Z,13.60
2017-11-30T23:47:17.809Z,23.73
2017-11-30T23:49:46.840Z,12.90
2017-11-30T23:52:14.850Z,16.60
2017-11-30T23:54:42.677Z,27.97
2017-11-30T23:57:10.522Z,19.60
2017-11-30T23:59:38.161Z,15.93
